sensor_id;sensor_type;location;lat;lon;timestamp;P1;durP1;ratioP1;P2;durP2;ratioP2
57319;SDS011;43158;51.026;18.190;2023-05-19T00:01:57;8.30;;;6.90;;
57319;SDS011;43158;51.026;18.190;2023-05-19T00:04:30;10.80;;;6.90;;
57319;SDS011;43158;51.026;18.190;2023-05-19T00:06:58;9.90;;;6.20;;
57319;SDS011;43158;51.026;18.190;2023-05-19T00:09:25;7.50;;;5.90;;
57319;SDS011;43158;51.026;18.190;2023-05-19T00:11:52;7.70;;;5.90;;
57319;SDS011;43158;51.026;18.190;2023-05-19T00:14:19;16.30;;;12.60;;
57319;SDS011;43158;51.026;18.190;2023-05-19T00:16:46;13.80;;;10.50;;
57319;SDS011;43158;51.026;18.190;2023-05-19T00:19:13;14.70;;;11.70;;
57319;SDS011;43158;51.026;18.190;2023-05-19T00:21:41;13.40;;;10.30;;
57319;SDS011;43158;51.026;18.190;2023-05-19T00:24:08;8.40;;;7.50;;
57319;SDS011;43158;51.026;18.190;2023-05-19T00:26:34;9.50;;;8.10;;
57319;SDS011;43158;51.026;18.190;2023-05-19T00:29:01;10.00;;;8.10;;
57319;SDS011;43158;51.026;18.190;2023-05-19T00:31:28;7.10;;;5.40;;
57319;SDS011;43158;51.026;18.190;2023-05-19T00:33:56;8.40;;;5.30;;
57319;SDS011;43158;51.026;18.190;2023-05-19T00:36:23;10.70;;;5.20;;
57319;SDS011;43158;51.026;18.190;2023-05-19T00:38:50;7.00;;;4.00;;
57319;SDS011;43158;51.026;18.190;2023-05-19T00:41:16;8.50;;;4.80;;
57319;SDS011;43158;51.026;18.190;2023-05-19T00:43:44;6.00;;;3.50;;
57319;SDS011;43158;51.026;18.190;2023-05-19T00:46:10;5.40;;;3.40;;
57319;SDS011;43158;51.026;18.190;2023-05-19T00:48:38;5.60;;;2.90;;
57319;SDS011;43158;51.026;18.190;2023-05-19T00:51:05;4.10;;;3.40;;
57319;SDS011;43158;51.026;18.190;2023-05-19T00:53:32;4.40;;;4.00;;
57319;SDS011;43158;51.026;18.190;2023-05-19T00:56:00;7.60;;;3.70;;
57319;SDS011;43158;51.026;18.190;2023-05-19T00:58:27;4.80;;;3.70;;
57319;SDS011;43158;51.026;18.190;2023-05-19T01:00:57;5.20;;;3.80;;
57319;SDS011;43158;51.026;18.190;2023-05-19T01:03:32;3.70;;;3.20;;
57319;SDS011;43158;51.026;18.190;2023-05-19T01:06:04;5.70;;;3.30;;
57319;SDS011;43158;51.026;18.190;2023-05-19T01:08:32;7.40;;;3.20;;
57319;SDS011;43158;51.026;18.190;2023-05-19T01:11:00;4.80;;;3.40;;
57319;SDS011;43158;51.026;18.190;2023-05-19T01:13:27;25.40;;;18.70;;
57319;SDS011;43158;51.026;18.190;2023-05-19T01:18:23;4.40;;;3.40;;
57319;SDS011;43158;51.026;18.190;2023-05-19T01:21:05;5.00;;;3.80;;
57319;SDS011;43158;51.026;18.190;2023-05-19T01:29:27;7.40;;;4.90;;
57319;SDS011;43158;51.026;18.190;2023-05-19T01:32:02;6.20;;;3.90;;
57319;SDS011;43158;51.026;18.190;2023-05-19T01:34:32;4.70;;;3.30;;
57319;SDS011;43158;51.026;18.190;2023-05-19T01:37:00;5.70;;;4.70;;
57319;SDS011;43158;51.026;18.190;2023-05-19T01:39:28;9.60;;;8.70;;
57319;SDS011;43158;51.026;18.190;2023-05-19T01:41:55;15.00;;;13.30;;
57319;SDS011;43158;51.026;18.190;2023-05-19T01:44:23;15.00;;;13.50;;
57319;SDS011;43158;51.026;18.190;2023-05-19T01:46:50;4.40;;;3.60;;
57319;SDS011;43158;51.026;18.190;2023-05-19T01:49:17;4.80;;;3.70;;
57319;SDS011;43158;51.026;18.190;2023-05-19T01:51:43;4.60;;;3.70;;
57319;SDS011;43158;51.026;18.190;2023-05-19T01:54:10;4.60;;;3.30;;
57319;SDS011;43158;51.026;18.190;2023-05-19T01:59:15;3.60;;;2.70;;
57319;SDS011;43158;51.026;18.190;2023-05-19T02:01:50;3.80;;;2.80;;
57319;SDS011;43158;51.026;18.190;2023-05-19T02:04:23;6.00;;;3.30;;
57319;SDS011;43158;51.026;18.190;2023-05-19T02:07:22;5.20;;;3.60;;
57319;SDS011;43158;51.026;18.190;2023-05-19T02:12:31;3.70;;;3.00;;
57319;SDS011;43158;51.026;18.190;2023-05-19T02:17:40;3.40;;;2.70;;
57319;SDS011;43158;51.026;18.190;2023-05-19T02:20:26;3.00;;;2.70;;
57319;SDS011;43158;51.026;18.190;2023-05-19T02:22:53;6.80;;;2.80;;
57319;SDS011;43158;51.026;18.190;2023-05-19T02:25:19;5.90;;;3.40;;
57319;SDS011;43158;51.026;18.190;2023-05-19T02:27:48;3.50;;;2.70;;
57319;SDS011;43158;51.026;18.190;2023-05-19T02:30:16;2.80;;;2.40;;
57319;SDS011;43158;51.026;18.190;2023-05-19T02:32:48;4.50;;;2.70;;
57319;SDS011;43158;51.026;18.190;2023-05-19T02:35:15;3.10;;;2.60;;
57319;SDS011;43158;51.026;18.190;2023-05-19T02:37:41;7.10;;;3.70;;
57319;SDS011;43158;51.026;18.190;2023-05-19T02:40:09;4.40;;;2.90;;
57319;SDS011;43158;51.026;18.190;2023-05-19T02:42:35;6.20;;;3.00;;
57319;SDS011;43158;51.026;18.190;2023-05-19T02:45:02;4.10;;;3.10;;
57319;SDS011;43158;51.026;18.190;2023-05-19T02:47:29;3.50;;;3.00;;
57319;SDS011;43158;51.026;18.190;2023-05-19T02:49:55;3.70;;;2.90;;
57319;SDS011;43158;51.026;18.190;2023-05-19T02:52:22;3.70;;;3.00;;
57319;SDS011;43158;51.026;18.190;2023-05-19T02:54:49;4.20;;;3.30;;
57319;SDS011;43158;51.026;18.190;2023-05-19T02:57:15;3.80;;;3.00;;
57319;SDS011;43158;51.026;18.190;2023-05-19T02:59:42;5.50;;;3.40;;
57319;SDS011;43158;51.026;18.190;2023-05-19T03:02:09;3.50;;;3.20;;
57319;SDS011;43158;51.026;18.190;2023-05-19T03:04:36;4.00;;;3.60;;
57319;SDS011;43158;51.026;18.190;2023-05-19T03:07:06;4.30;;;3.60;;
57319;SDS011;43158;51.026;18.190;2023-05-19T03:09:37;5.60;;;4.40;;
57319;SDS011;43158;51.026;18.190;2023-05-19T03:12:04;5.10;;;4.00;;
57319;SDS011;43158;51.026;18.190;2023-05-19T03:14:34;13.80;;;10.20;;
57319;SDS011;43158;51.026;18.190;2023-05-19T03:17:05;10.80;;;7.60;;
57319;SDS011;43158;51.026;18.190;2023-05-19T03:19:37;6.40;;;4.90;;
57319;SDS011;43158;51.026;18.190;2023-05-19T03:22:03;7.60;;;6.70;;
57319;SDS011;43158;51.026;18.190;2023-05-19T03:24:30;4.80;;;4.20;;
57319;SDS011;43158;51.026;18.190;2023-05-19T03:26:57;5.40;;;4.30;;
57319;SDS011;43158;51.026;18.190;2023-05-19T03:29:23;7.00;;;4.10;;
57319;SDS011;43158;51.026;18.190;2023-05-19T03:31:50;4.60;;;4.10;;
57319;SDS011;43158;51.026;18.190;2023-05-19T03:34:17;7.00;;;3.70;;
57319;SDS011;43158;51.026;18.190;2023-05-19T03:36:43;4.80;;;3.20;;
57319;SDS011;43158;51.026;18.190;2023-05-19T03:39:10;6.90;;;3.80;;
57319;SDS011;43158;51.026;18.190;2023-05-19T03:41:37;6.20;;;3.30;;
57319;SDS011;43158;51.026;18.190;2023-05-19T03:44:03;4.80;;;3.50;;
57319;SDS011;43158;51.026;18.190;2023-05-19T03:46:30;6.20;;;3.50;;
57319;SDS011;43158;51.026;18.190;2023-05-19T03:48:57;4.60;;;2.80;;
57319;SDS011;43158;51.026;18.190;2023-05-19T03:51:24;5.40;;;3.30;;
57319;SDS011;43158;51.026;18.190;2023-05-19T03:53:53;4.30;;;3.30;;
57319;SDS011;43158;51.026;18.190;2023-05-19T03:56:20;6.70;;;3.70;;
57319;SDS011;43158;51.026;18.190;2023-05-19T03:58:48;3.80;;;3.30;;
57319;SDS011;43158;51.026;18.190;2023-05-19T04:01:14;4.40;;;3.70;;
57319;SDS011;43158;51.026;18.190;2023-05-19T04:03:41;4.70;;;3.80;;
57319;SDS011;43158;51.026;18.190;2023-05-19T04:06:11;6.60;;;3.50;;
57319;SDS011;43158;51.026;18.190;2023-05-19T04:08:46;6.00;;;3.30;;
57319;SDS011;43158;51.026;18.190;2023-05-19T04:11:12;6.30;;;4.60;;
57319;SDS011;43158;51.026;18.190;2023-05-19T04:13:39;7.10;;;4.00;;
57319;SDS011;43158;51.026;18.190;2023-05-19T04:16:06;4.20;;;3.70;;
57319;SDS011;43158;51.026;18.190;2023-05-19T04:18:33;4.80;;;3.10;;
57319;SDS011;43158;51.026;18.190;2023-05-19T04:21:02;4.70;;;3.60;;
57319;SDS011;43158;51.026;18.190;2023-05-19T04:23:29;6.00;;;3.50;;
57319;SDS011;43158;51.026;18.190;2023-05-19T04:25:57;7.20;;;3.60;;
57319;SDS011;43158;51.026;18.190;2023-05-19T04:28:23;4.80;;;3.40;;
57319;SDS011;43158;51.026;18.190;2023-05-19T04:30:50;3.70;;;3.20;;
57319;SDS011;43158;51.026;18.190;2023-05-19T04:33:17;4.90;;;2.90;;
57319;SDS011;43158;51.026;18.190;2023-05-19T04:35:44;5.30;;;3.70;;
57319;SDS011;43158;51.026;18.190;2023-05-19T04:38:11;8.80;;;3.90;;
57319;SDS011;43158;51.026;18.190;2023-05-19T04:40:38;4.90;;;3.40;;
57319;SDS011;43158;51.026;18.190;2023-05-19T04:43:08;6.30;;;4.70;;
57319;SDS011;43158;51.026;18.190;2023-05-19T04:45:35;7.10;;;4.90;;
57319;SDS011;43158;51.026;18.190;2023-05-19T04:48:03;7.00;;;4.70;;
57319;SDS011;43158;51.026;18.190;2023-05-19T04:50:29;3.90;;;3.60;;
57319;SDS011;43158;51.026;18.190;2023-05-19T04:52:57;5.70;;;3.20;;
57319;SDS011;43158;51.026;18.190;2023-05-19T04:55:23;4.80;;;3.10;;
57319;SDS011;43158;51.026;18.190;2023-05-19T04:57:50;6.40;;;4.00;;
57319;SDS011;43158;51.026;18.190;2023-05-19T05:00:16;4.00;;;3.60;;
57319;SDS011;43158;51.026;18.190;2023-05-19T05:02:43;3.80;;;3.20;;
57319;SDS011;43158;51.026;18.190;2023-05-19T05:05:10;5.50;;;3.10;;
57319;SDS011;43158;51.026;18.190;2023-05-19T05:07:37;4.30;;;3.00;;
57319;SDS011;43158;51.026;18.190;2023-05-19T05:10:04;4.70;;;3.00;;
57319;SDS011;43158;51.026;18.190;2023-05-19T05:12:32;4.30;;;3.20;;
57319;SDS011;43158;51.026;18.190;2023-05-19T05:14:59;6.10;;;3.90;;
57319;SDS011;43158;51.026;18.190;2023-05-19T05:17:26;3.30;;;3.10;;
57319;SDS011;43158;51.026;18.190;2023-05-19T05:19:54;3.80;;;3.30;;
57319;SDS011;43158;51.026;18.190;2023-05-19T05:22:31;4.00;;;3.30;;
57319;SDS011;43158;51.026;18.190;2023-05-19T05:24:59;4.70;;;4.30;;
57319;SDS011;43158;51.026;18.190;2023-05-19T05:27:26;6.80;;;3.80;;
57319;SDS011;43158;51.026;18.190;2023-05-19T05:29:54;3.80;;;3.40;;
57319;SDS011;43158;51.026;18.190;2023-05-19T05:32:20;6.70;;;4.80;;
57319;SDS011;43158;51.026;18.190;2023-05-19T05:34:54;5.20;;;4.20;;
57319;SDS011;43158;51.026;18.190;2023-05-19T05:37:29;6.10;;;3.90;;
57319;SDS011;43158;51.026;18.190;2023-05-19T05:39:56;4.70;;;3.50;;
57319;SDS011;43158;51.026;18.190;2023-05-19T05:42:22;6.00;;;4.00;;
57319;SDS011;43158;51.026;18.190;2023-05-19T05:44:49;4.90;;;3.70;;
57319;SDS011;43158;51.026;18.190;2023-05-19T05:47:16;4.00;;;3.60;;
57319;SDS011;43158;51.026;18.190;2023-05-19T05:49:43;7.90;;;3.80;;
57319;SDS011;43158;51.026;18.190;2023-05-19T05:52:12;3.60;;;2.80;;
57319;SDS011;43158;51.026;18.190;2023-05-19T05:54:40;6.30;;;3.50;;
57319;SDS011;43158;51.026;18.190;2023-05-19T05:57:07;4.00;;;3.00;;
57319;SDS011;43158;51.026;18.190;2023-05-19T05:59:35;5.00;;;3.20;;
57319;SDS011;43158;51.026;18.190;2023-05-19T06:02:02;3.40;;;2.80;;
57319;SDS011;43158;51.026;18.190;2023-05-19T06:04:28;4.50;;;3.80;;
57319;SDS011;43158;51.026;18.190;2023-05-19T06:06:55;6.00;;;3.60;;
57319;SDS011;43158;51.026;18.190;2023-05-19T06:09:25;5.70;;;4.20;;
57319;SDS011;43158;51.026;18.190;2023-05-19T06:11:52;9.90;;;5.40;;
57319;SDS011;43158;51.026;18.190;2023-05-19T06:14:18;4.90;;;4.00;;
57319;SDS011;43158;51.026;18.190;2023-05-19T06:16:46;5.60;;;4.20;;
57319;SDS011;43158;51.026;18.190;2023-05-19T06:19:13;4.30;;;3.90;;
57319;SDS011;43158;51.026;18.190;2023-05-19T06:21:41;4.10;;;3.70;;
57319;SDS011;43158;51.026;18.190;2023-05-19T06:24:08;4.70;;;4.00;;
57319;SDS011;43158;51.026;18.190;2023-05-19T06:26:39;5.40;;;4.40;;
57319;SDS011;43158;51.026;18.190;2023-05-19T06:29:05;4.20;;;3.90;;
57319;SDS011;43158;51.026;18.190;2023-05-19T06:31:32;6.20;;;3.70;;
57319;SDS011;43158;51.026;18.190;2023-05-19T06:33:58;3.90;;;3.50;;
57319;SDS011;43158;51.026;18.190;2023-05-19T06:36:25;4.00;;;3.50;;
57319;SDS011;43158;51.026;18.190;2023-05-19T06:38:59;4.30;;;3.80;;
57319;SDS011;43158;51.026;18.190;2023-05-19T06:41:27;3.90;;;3.60;;
57319;SDS011;43158;51.026;18.190;2023-05-19T06:43:54;4.30;;;3.50;;
57319;SDS011;43158;51.026;18.190;2023-05-19T06:46:21;6.60;;;3.80;;
57319;SDS011;43158;51.026;18.190;2023-05-19T06:48:48;3.90;;;3.30;;
57319;SDS011;43158;51.026;18.190;2023-05-19T06:51:14;4.00;;;3.50;;
57319;SDS011;43158;51.026;18.190;2023-05-19T06:53:46;3.90;;;3.50;;
57319;SDS011;43158;51.026;18.190;2023-05-19T06:56:13;3.60;;;3.10;;
57319;SDS011;43158;51.026;18.190;2023-05-19T06:58:41;4.90;;;3.50;;
57319;SDS011;43158;51.026;18.190;2023-05-19T07:01:11;5.10;;;3.90;;
57319;SDS011;43158;51.026;18.190;2023-05-19T07:03:37;4.40;;;3.80;;
57319;SDS011;43158;51.026;18.190;2023-05-19T07:06:04;5.30;;;4.40;;
57319;SDS011;43158;51.026;18.190;2023-05-19T07:08:31;5.60;;;5.00;;
57319;SDS011;43158;51.026;18.190;2023-05-19T07:10:59;7.90;;;7.00;;
57319;SDS011;43158;51.026;18.190;2023-05-19T07:13:25;6.70;;;3.70;;
57319;SDS011;43158;51.026;18.190;2023-05-19T07:15:52;5.20;;;4.40;;
57319;SDS011;43158;51.026;18.190;2023-05-19T07:18:22;4.90;;;4.20;;
57319;SDS011;43158;51.026;18.190;2023-05-19T07:20:50;4.70;;;4.20;;
57319;SDS011;43158;51.026;18.190;2023-05-19T07:23:17;4.50;;;4.10;;
57319;SDS011;43158;51.026;18.190;2023-05-19T07:25:45;4.40;;;3.50;;
57319;SDS011;43158;51.026;18.190;2023-05-19T07:28:12;5.90;;;4.80;;
57319;SDS011;43158;51.026;18.190;2023-05-19T07:30:38;4.50;;;3.70;;
57319;SDS011;43158;51.026;18.190;2023-05-19T07:33:05;5.00;;;4.30;;
57319;SDS011;43158;51.026;18.190;2023-05-19T07:35:32;5.80;;;4.40;;
57319;SDS011;43158;51.026;18.190;2023-05-19T07:37:59;5.40;;;4.90;;
57319;SDS011;43158;51.026;18.190;2023-05-19T07:40:26;6.00;;;5.00;;
57319;SDS011;43158;51.026;18.190;2023-05-19T07:42:53;8.10;;;4.50;;
57319;SDS011;43158;51.026;18.190;2023-05-19T07:45:19;6.70;;;5.80;;
57319;SDS011;43158;51.026;18.190;2023-05-19T07:47:46;8.10;;;4.80;;
57319;SDS011;43158;51.026;18.190;2023-05-19T07:50:12;8.50;;;7.20;;
57319;SDS011;43158;51.026;18.190;2023-05-19T07:52:39;7.80;;;6.80;;
57319;SDS011;43158;51.026;18.190;2023-05-19T07:55:05;6.60;;;5.90;;
57319;SDS011;43158;51.026;18.190;2023-05-19T07:57:32;11.50;;;6.30;;
57319;SDS011;43158;51.026;18.190;2023-05-19T07:59:59;4.00;;;3.60;;
57319;SDS011;43158;51.026;18.190;2023-05-19T08:02:26;7.10;;;6.20;;
57319;SDS011;43158;51.026;18.190;2023-05-19T08:04:52;8.00;;;4.70;;
57319;SDS011;43158;51.026;18.190;2023-05-19T08:07:19;5.90;;;5.30;;
57319;SDS011;43158;51.026;18.190;2023-05-19T08:09:46;4.90;;;4.50;;
57319;SDS011;43158;51.026;18.190;2023-05-19T08:12:14;6.40;;;4.20;;
57319;SDS011;43158;51.026;18.190;2023-05-19T08:14:41;4.90;;;4.20;;
57319;SDS011;43158;51.026;18.190;2023-05-19T08:17:08;5.80;;;4.30;;
57319;SDS011;43158;51.026;18.190;2023-05-19T08:19:35;5.10;;;4.60;;
57319;SDS011;43158;51.026;18.190;2023-05-19T08:22:02;6.90;;;5.40;;
57319;SDS011;43158;51.026;18.190;2023-05-19T08:24:28;5.90;;;5.30;;
57319;SDS011;43158;51.026;18.190;2023-05-19T08:26:57;6.30;;;5.10;;
57319;SDS011;43158;51.026;18.190;2023-05-19T08:29:24;6.90;;;4.90;;
57319;SDS011;43158;51.026;18.190;2023-05-19T08:31:51;5.70;;;5.20;;
57319;SDS011;43158;51.026;18.190;2023-05-19T08:34:18;5.80;;;5.20;;
57319;SDS011;43158;51.026;18.190;2023-05-19T08:36:45;6.50;;;5.40;;
57319;SDS011;43158;51.026;18.190;2023-05-19T08:39:12;6.20;;;5.50;;
57319;SDS011;43158;51.026;18.190;2023-05-19T08:41:40;6.30;;;5.50;;
57319;SDS011;43158;51.026;18.190;2023-05-19T08:44:07;7.80;;;7.00;;
57319;SDS011;43158;51.026;18.190;2023-05-19T08:46:35;6.50;;;5.90;;
57319;SDS011;43158;51.026;18.190;2023-05-19T08:49:03;7.90;;;6.60;;
57319;SDS011;43158;51.026;18.190;2023-05-19T08:51:38;8.60;;;7.70;;
57319;SDS011;43158;51.026;18.190;2023-05-19T08:54:13;6.20;;;5.60;;
57319;SDS011;43158;51.026;18.190;2023-05-19T08:56:41;6.30;;;5.80;;
57319;SDS011;43158;51.026;18.190;2023-05-19T08:59:09;7.80;;;6.00;;
57319;SDS011;43158;51.026;18.190;2023-05-19T09:01:41;9.60;;;6.60;;
57319;SDS011;43158;51.026;18.190;2023-05-19T09:06:35;6.60;;;6.10;;
57319;SDS011;43158;51.026;18.190;2023-05-19T09:09:05;9.00;;;8.10;;
57319;SDS011;43158;51.026;18.190;2023-05-19T09:11:33;8.20;;;7.30;;
57319;SDS011;43158;51.026;18.190;2023-05-19T09:14:02;7.50;;;6.70;;
57319;SDS011;43158;51.026;18.190;2023-05-19T09:16:29;7.20;;;6.50;;
57319;SDS011;43158;51.026;18.190;2023-05-19T09:18:57;7.60;;;6.20;;
57319;SDS011;43158;51.026;18.190;2023-05-19T09:21:28;7.00;;;6.00;;
57319;SDS011;43158;51.026;18.190;2023-05-19T09:24:02;7.60;;;7.00;;
57319;SDS011;43158;51.026;18.190;2023-05-19T09:26:40;8.40;;;7.60;;
57319;SDS011;43158;51.026;18.190;2023-05-19T09:29:11;7.40;;;6.80;;
57319;SDS011;43158;51.026;18.190;2023-05-19T09:31:39;9.10;;;6.70;;
57319;SDS011;43158;51.026;18.190;2023-05-19T09:34:15;9.40;;;6.80;;
57319;SDS011;43158;51.026;18.190;2023-05-19T09:36:43;8.30;;;7.60;;
57319;SDS011;43158;51.026;18.190;2023-05-19T09:39:14;8.00;;;7.20;;
57319;SDS011;43158;51.026;18.190;2023-05-19T09:41:42;8.70;;;8.00;;
57319;SDS011;43158;51.026;18.190;2023-05-19T09:44:12;13.90;;;12.50;;
57319;SDS011;43158;51.026;18.190;2023-05-19T09:46:51;10.20;;;9.00;;
57319;SDS011;43158;51.026;18.190;2023-05-19T09:49:19;10.20;;;9.30;;
57319;SDS011;43158;51.026;18.190;2023-05-19T09:51:56;8.80;;;7.80;;
57319;SDS011;43158;51.026;18.190;2023-05-19T09:54:24;9.00;;;8.10;;
57319;SDS011;43158;51.026;18.190;2023-05-19T09:56:57;8.60;;;7.90;;
57319;SDS011;43158;51.026;18.190;2023-05-19T09:59:28;12.30;;;8.00;;
57319;SDS011;43158;51.026;18.190;2023-05-19T10:01:56;9.80;;;8.00;;
57319;SDS011;43158;51.026;18.190;2023-05-19T10:04:26;8.10;;;7.40;;
57319;SDS011;43158;51.026;18.190;2023-05-19T10:06:54;8.70;;;8.00;;
57319;SDS011;43158;51.026;18.190;2023-05-19T10:09:30;9.50;;;8.70;;
57319;SDS011;43158;51.026;18.190;2023-05-19T10:11:57;8.30;;;7.60;;
57319;SDS011;43158;51.026;18.190;2023-05-19T10:14:27;8.00;;;6.30;;
57319;SDS011;43158;51.026;18.190;2023-05-19T10:16:56;6.70;;;6.10;;
57319;SDS011;43158;51.026;18.190;2023-05-19T10:19:24;6.70;;;6.10;;
57319;SDS011;43158;51.026;18.190;2023-05-19T10:21:51;9.20;;;6.90;;
57319;SDS011;43158;51.026;18.190;2023-05-19T10:24:19;7.30;;;6.70;;
57319;SDS011;43158;51.026;18.190;2023-05-19T10:26:49;8.60;;;7.70;;
57319;SDS011;43158;51.026;18.190;2023-05-19T10:29:32;9.60;;;8.70;;
57319;SDS011;43158;51.026;18.190;2023-05-19T10:32:03;9.20;;;8.40;;
57319;SDS011;43158;51.026;18.190;2023-05-19T10:40:23;7.90;;;7.00;;
57319;SDS011;43158;51.026;18.190;2023-05-19T10:46:04;10.20;;;9.20;;
57319;SDS011;43158;51.026;18.190;2023-05-19T10:48:34;8.90;;;8.20;;
57319;SDS011;43158;51.026;18.190;2023-05-19T10:51:02;8.80;;;7.20;;
57319;SDS011;43158;51.026;18.190;2023-05-19T10:53:34;7.50;;;6.70;;
57319;SDS011;43158;51.026;18.190;2023-05-19T10:56:04;7.80;;;6.60;;
57319;SDS011;43158;51.026;18.190;2023-05-19T10:58:47;7.30;;;6.70;;
57319;SDS011;43158;51.026;18.190;2023-05-19T11:01:15;9.30;;;8.30;;
57319;SDS011;43158;51.026;18.190;2023-05-19T11:03:50;8.40;;;7.50;;
57319;SDS011;43158;51.026;18.190;2023-05-19T11:08:45;11.60;;;8.10;;
57319;SDS011;43158;51.026;18.190;2023-05-19T11:11:15;8.10;;;7.20;;
57319;SDS011;43158;51.026;18.190;2023-05-19T11:13:45;8.50;;;7.70;;
57319;SDS011;43158;51.026;18.190;2023-05-19T11:16:13;8.20;;;7.30;;
57319;SDS011;43158;51.026;18.190;2023-05-19T11:18:40;7.10;;;6.20;;
57319;SDS011;43158;51.026;18.190;2023-05-19T11:21:08;8.00;;;7.10;;
57319;SDS011;43158;51.026;18.190;2023-05-19T11:23:37;8.60;;;7.80;;
57319;SDS011;43158;51.026;18.190;2023-05-19T11:26:05;7.80;;;7.00;;
57319;SDS011;43158;51.026;18.190;2023-05-19T11:28:40;7.10;;;5.80;;
57319;SDS011;43158;51.026;18.190;2023-05-19T11:31:07;4.90;;;4.50;;
57319;SDS011;43158;51.026;18.190;2023-05-19T11:33:35;5.00;;;4.60;;
57319;SDS011;43158;51.026;18.190;2023-05-19T11:36:02;5.60;;;5.20;;
57319;SDS011;43158;51.026;18.190;2023-05-19T11:38:30;7.00;;;6.10;;
57319;SDS011;43158;51.026;18.190;2023-05-19T11:40:57;10.50;;;8.90;;
57319;SDS011;43158;51.026;18.190;2023-05-19T11:43:24;9.10;;;8.30;;
57319;SDS011;43158;51.026;18.190;2023-05-19T11:45:52;8.80;;;7.90;;
57319;SDS011;43158;51.026;18.190;2023-05-19T11:48:19;6.90;;;6.20;;
57319;SDS011;43158;51.026;18.190;2023-05-19T11:50:48;8.20;;;6.20;;
57319;SDS011;43158;51.026;18.190;2023-05-19T11:53:15;9.30;;;7.10;;
57319;SDS011;43158;51.026;18.190;2023-05-19T11:55:44;6.90;;;6.30;;
57319;SDS011;43158;51.026;18.190;2023-05-19T11:58:11;11.50;;;8.70;;
57319;SDS011;43158;51.026;18.190;2023-05-19T12:00:39;10.20;;;8.30;;
57319;SDS011;43158;51.026;18.190;2023-05-19T12:03:06;6.00;;;5.50;;
57319;SDS011;43158;51.026;18.190;2023-05-19T12:05:35;6.70;;;5.60;;
57319;SDS011;43158;51.026;18.190;2023-05-19T12:08:04;6.30;;;5.70;;
57319;SDS011;43158;51.026;18.190;2023-05-19T12:10:30;7.80;;;7.10;;
57319;SDS011;43158;51.026;18.190;2023-05-19T12:13:18;7.80;;;6.90;;
57319;SDS011;43158;51.026;18.190;2023-05-19T12:15:49;10.80;;;7.60;;
57319;SDS011;43158;51.026;18.190;2023-05-19T12:20:44;7.20;;;6.50;;
57319;SDS011;43158;51.026;18.190;2023-05-19T12:23:11;8.50;;;6.20;;
57319;SDS011;43158;51.026;18.190;2023-05-19T12:25:39;9.10;;;8.30;;
57319;SDS011;43158;51.026;18.190;2023-05-19T12:28:06;9.20;;;8.30;;
57319;SDS011;43158;51.026;18.190;2023-05-19T12:30:33;13.50;;;12.30;;
57319;SDS011;43158;51.026;18.190;2023-05-19T12:33:01;11.00;;;9.90;;
57319;SDS011;43158;51.026;18.190;2023-05-19T12:35:28;10.90;;;9.90;;
57319;SDS011;43158;51.026;18.190;2023-05-19T12:38:00;10.60;;;9.40;;
57319;SDS011;43158;51.026;18.190;2023-05-19T12:40:34;14.40;;;13.00;;
57319;SDS011;43158;51.026;18.190;2023-05-19T12:43:01;10.80;;;9.80;;
57319;SDS011;43158;51.026;18.190;2023-05-19T12:45:28;13.40;;;12.10;;
57319;SDS011;43158;51.026;18.190;2023-05-19T12:48:02;11.10;;;10.00;;
57319;SDS011;43158;51.026;18.190;2023-05-19T12:50:31;13.10;;;11.90;;
57319;SDS011;43158;51.026;18.190;2023-05-19T12:55:45;9.40;;;8.40;;
57319;SDS011;43158;51.026;18.190;2023-05-19T12:58:14;14.30;;;12.60;;
57319;SDS011;43158;51.026;18.190;2023-05-19T13:00:42;13.60;;;11.40;;
57319;SDS011;43158;51.026;18.190;2023-05-19T13:03:16;12.70;;;11.50;;
57319;SDS011;43158;51.026;18.190;2023-05-19T13:05:45;10.10;;;9.10;;
57319;SDS011;43158;51.026;18.190;2023-05-19T13:08:13;9.10;;;8.20;;
57319;SDS011;43158;51.026;18.190;2023-05-19T13:10:46;8.20;;;7.10;;
57319;SDS011;43158;51.026;18.190;2023-05-19T13:13:14;7.70;;;6.50;;
57319;SDS011;43158;51.026;18.190;2023-05-19T13:15:42;5.80;;;4.90;;
57319;SDS011;43158;51.026;18.190;2023-05-19T13:18:11;7.10;;;5.30;;
57319;SDS011;43158;51.026;18.190;2023-05-19T13:20:38;6.30;;;5.70;;
57319;SDS011;43158;51.026;18.190;2023-05-19T13:23:06;6.80;;;5.80;;
57319;SDS011;43158;51.026;18.190;2023-05-19T13:25:35;9.10;;;6.70;;
57319;SDS011;43158;51.026;18.190;2023-05-19T13:28:09;9.40;;;8.50;;
57319;SDS011;43158;51.026;18.190;2023-05-19T13:30:37;11.20;;;10.20;;
57319;SDS011;43158;51.026;18.190;2023-05-19T13:33:20;9.80;;;8.90;;
57319;SDS011;43158;51.026;18.190;2023-05-19T13:35:46;13.70;;;12.60;;
57319;SDS011;43158;51.026;18.190;2023-05-19T13:38:21;10.30;;;9.30;;
57319;SDS011;43158;51.026;18.190;2023-05-19T13:40:48;10.00;;;9.10;;
57319;SDS011;43158;51.026;18.190;2023-05-19T13:43:14;11.10;;;10.10;;
57319;SDS011;43158;51.026;18.190;2023-05-19T13:45:41;12.10;;;11.10;;
57319;SDS011;43158;51.026;18.190;2023-05-19T13:48:09;9.00;;;6.90;;
57319;SDS011;43158;51.026;18.190;2023-05-19T13:50:36;8.10;;;7.20;;
57319;SDS011;43158;51.026;18.190;2023-05-19T13:53:03;11.30;;;8.50;;
57319;SDS011;43158;51.026;18.190;2023-05-19T13:55:29;12.80;;;7.90;;
57319;SDS011;43158;51.026;18.190;2023-05-19T13:57:57;9.70;;;8.70;;
57319;SDS011;43158;51.026;18.190;2023-05-19T14:00:29;10.70;;;9.70;;
57319;SDS011;43158;51.026;18.190;2023-05-19T14:02:56;10.70;;;9.80;;
57319;SDS011;43158;51.026;18.190;2023-05-19T14:05:23;9.50;;;8.70;;
57319;SDS011;43158;51.026;18.190;2023-05-19T14:07:53;10.50;;;9.40;;
57319;SDS011;43158;51.026;18.190;2023-05-19T14:10:20;9.70;;;8.70;;
57319;SDS011;43158;51.026;18.190;2023-05-19T14:12:47;11.00;;;8.00;;
57319;SDS011;43158;51.026;18.190;2023-05-19T14:15:17;11.00;;;8.30;;
57319;SDS011;43158;51.026;18.190;2023-05-19T14:17:49;9.50;;;8.00;;
57319;SDS011;43158;51.026;18.190;2023-05-19T14:20:21;9.80;;;8.70;;
57319;SDS011;43158;51.026;18.190;2023-05-19T14:23:07;10.30;;;8.00;;
57319;SDS011;43158;51.026;18.190;2023-05-19T14:25:52;6.90;;;6.30;;
57319;SDS011;43158;51.026;18.190;2023-05-19T14:28:20;6.90;;;6.40;;
57319;SDS011;43158;51.026;18.190;2023-05-19T14:30:47;7.80;;;6.30;;
57319;SDS011;43158;51.026;18.190;2023-05-19T14:33:14;9.30;;;8.40;;
57319;SDS011;43158;51.026;18.190;2023-05-19T14:35:41;11.50;;;10.50;;
57319;SDS011;43158;51.026;18.190;2023-05-19T14:38:07;11.20;;;10.30;;
57319;SDS011;43158;51.026;18.190;2023-05-19T14:40:37;13.20;;;12.00;;
57319;SDS011;43158;51.026;18.190;2023-05-19T14:43:06;13.10;;;11.90;;
57319;SDS011;43158;51.026;18.190;2023-05-19T14:45:32;12.20;;;10.60;;
57319;SDS011;43158;51.026;18.190;2023-05-19T14:48:00;12.00;;;11.00;;
57319;SDS011;43158;51.026;18.190;2023-05-19T14:50:27;12.80;;;11.60;;
57319;SDS011;43158;51.026;18.190;2023-05-19T14:52:54;12.90;;;11.90;;
57319;SDS011;43158;51.026;18.190;2023-05-19T14:55:21;13.00;;;11.90;;
57319;SDS011;43158;51.026;18.190;2023-05-19T14:57:48;12.00;;;10.80;;
57319;SDS011;43158;51.026;18.190;2023-05-19T15:00:14;10.60;;;9.70;;
57319;SDS011;43158;51.026;18.190;2023-05-19T15:02:43;10.50;;;9.60;;
57319;SDS011;43158;51.026;18.190;2023-05-19T15:05:09;11.80;;;10.80;;
57319;SDS011;43158;51.026;18.190;2023-05-19T15:07:37;13.40;;;12.30;;
57319;SDS011;43158;51.026;18.190;2023-05-19T15:10:04;14.20;;;13.00;;
57319;SDS011;43158;51.026;18.190;2023-05-19T15:12:31;14.00;;;12.70;;
57319;SDS011;43158;51.026;18.190;2023-05-19T15:14:58;12.90;;;11.80;;